Time;durP1;ratioP1;P1;durP2;ratioP2;P2;SDS_P1;SDS_P2;PMS_P1;PMS_P2;Temp;Humidity;BMP_temperature;BMP_pressure;BME280_temperature;BME280_humidity;BME280_pressure;Samples;Min_cycle;Max_cycle;Signal;HPM_P1;HPM_P2
2022/03/26 00:01:03;;;;;;;0.10;0.10;;;;;;;;;;5139184;27;20249;-79
2022/03/26 00:03:29;;;;;;;0.10;0.10;;;;;;;;;;5155224;27;20253;-79
2022/03/26 00:05:55;;;;;;;0.10;0.10;;;;;;;;;;5137546;27;20240;-79
2022/03/26 00:08:24;;;;;;;0.10;0.10;;;;;;;;;;5156187;27;20238;-78
2022/03/26 00:10:50;;;;;;;0.10;0.10;;;;;;;;;;5132784;27;20239;-79
2022/03/26 00:13:17;;;;;;;0.10;0.10;;;;;;;;;;5158525;27;20250;-78
2022/03/26 00:15:47;;;;;;;1.63;1.63;;;;;;;;;;5134598;27;20244;-78
2022/03/26 00:18:15;;;;;;;3.20;2.83;;;;;;;;;;5158002;27;20204;-78
2022/03/26 00:20:41;;;;;;;0.10;0.10;;;;;;;;;;5132514;27;20249;-81
2022/03/26 00:23:08;;;;;;;0.10;0.10;;;;;;;;;;5159472;27;20207;-78
2022/03/26 00:25:35;;;;;;;0.20;0.20;;;;;;;;;;5129541;27;21565;-79
2022/03/26 00:28:03;;;;;;;0.10;0.10;;;;;;;;;;5162660;27;20280;-78
2022/03/26 00:30:29;;;;;;;0.10;0.10;;;;;;;;;;5128136;27;20213;-79
2022/03/26 00:32:57;;;;;;;0.10;0.10;;;;;;;;;;5163634;27;20230;-79
2022/03/26 00:35:23;;;;;;;0.10;0.10;;;;;;;;;;5128879;27;20315;-79
2022/03/26 00:37:52;;;;;;;0.10;0.10;;;;;;;;;;5162795;27;20228;-79
2022/03/26 00:40:18;;;;;;;0.10;0.10;;;;;;;;;;5127272;27;20194;-79
2022/03/26 00:42:45;;;;;;;0.10;0.10;;;;;;;;;;5163318;27;20206;-79
2022/03/26 00:45:11;;;;;;;0.10;0.10;;;;;;;;;;5125509;27;20209;-78
2022/03/26 00:47:37;;;;;;;0.10;0.10;;;;;;;;;;5165402;27;20209;-79
2022/03/26 00:50:06;;;;;;;0.10;0.10;;;;;;;;;;5134089;28;20228;-79
2022/03/26 00:52:32;;;;;;;0.10;0.10;;;;;;;;;;5122205;28;20430;-80
2022/03/26 00:54:58;;;;;;;0.10;0.10;;;;;;;;;;5133909;27;20220;-78
2022/03/26 00:57:24;;;;;;;0.10;0.10;;;;;;;;;;5156693;27;20236;-78
2022/03/26 00:59:51;;;;;;;0.10;0.10;;;;;;;;;;5134067;27;20240;-78
2022/03/26 01:02:17;;;;;;;0.10;0.10;;;;;;;;;;5156804;27;20240;-78
2022/03/26 01:04:44;;;;;;;0.10;0.10;;;;;;;;;;5134654;28;20198;-79
2022/03/26 01:07:12;;;;;;;0.10;0.10;;;;;;;;;;5156331;27;20237;-78
2022/03/26 01:09:38;;;;;;;0.10;0.10;;;;;;;;;;5133275;28;20203;-80
2022/03/26 01:12:05;;;;;;;0.10;0.10;;;;;;;;;;5155166;27;20265;-79
2022/03/26 01:14:32;;;;;;;0.10;0.10;;;;;;;;;;5133576;28;20234;-79
2022/03/26 01:16:58;;;;;;;0.10;0.10;;;;;;;;;;5153641;27;20240;-79
2022/03/26 01:19:24;;;;;;;0.50;0.50;;;;;;;;;;5134907;27;20264;-81
2022/03/26 01:21:51;;;;;;;0.20;0.20;;;;;;;;;;5151912;27;20259;-79
2022/03/26 01:24:21;;;;;;;2.83;1.83;;;;;;;;;;5136375;27;20201;-79
2022/03/26 01:26:48;;;;;;;0.10;0.10;;;;;;;;;;5150093;27;20271;-78
2022/03/26 01:29:14;;;;;;;0.10;0.10;;;;;;;;;;5137698;27;20210;-79
2022/03/26 01:31:40;;;;;;;0.10;0.10;;;;;;;;;;5148931;27;20232;-79
2022/03/26 01:34:07;;;;;;;0.10;0.10;;;;;;;;;;5139103;27;20222;-79
2022/03/26 01:36:33;;;;;;;0.63;0.63;;;;;;;;;;5147202;27;20248;-79
2022/03/26 01:38:59;;;;;;;0.10;0.10;;;;;;;;;;5141938;27;20205;-81
2022/03/26 01:41:27;;;;;;;6.37;5.93;;;;;;;;;;5145087;27;20292;-79
2022/03/26 01:43:54;;;;;;;0.10;0.10;;;;;;;;;;5143180;27;20198;-79
2022/03/26 01:46:23;;;;;;;0.10;0.10;;;;;;;;;;5135293;27;20392;-80
2022/03/26 01:48:49;;;;;;;0.10;0.10;;;;;;;;;;5144604;27;20239;-80
2022/03/26 01:51:16;;;;;;;0.10;0.10;;;;;;;;;;5139087;27;20281;-78
2022/03/26 01:53:43;;;;;;;0.10;0.10;;;;;;;;;;5146162;27;20223;-79
2022/03/26 01:56:10;;;;;;;0.10;0.10;;;;;;;;;;5139983;27;20277;-80
2022/03/26 01:58:38;;;;;;;0.10;0.10;;;;;;;;;;5147472;27;20230;-80
2022/03/26 02:01:04;;;;;;;0.30;0.30;;;;;;;;;;5138533;27;20470;-79
2022/03/26 02:03:31;;;;;;;0.10;0.10;;;;;;;;;;5149248;27;20202;-79
2022/03/26 02:05:57;;;;;;;0.10;0.10;;;;;;;;;;5136817;27;20237;-80
2022/03/26 02:08:24;;;;;;;0.20;0.20;;;;;;;;;;5151455;27;20245;-79
2022/03/26 02:10:50;;;;;;;3.30;3.20;;;;;;;;;;5134094;27;20239;-80
2022/03/26 02:13:16;;;;;;;0.10;0.10;;;;;;;;;;5152854;27;20198;-80
2022/03/26 02:15:44;;;;;;;0.10;0.10;;;;;;;;;;5132691;27;20244;-79
2022/03/26 02:18:11;;;;;;;0.20;0.20;;;;;;;;;;5155095;27;20232;-79
2022/03/26 02:20:44;;;;;;;0.10;0.10;;;;;;;;;;5132078;27;20292;-79
2022/03/26 02:23:10;;;;;;;0.10;0.10;;;;;;;;;;5155103;27;20202;-79
2022/03/26 02:25:40;;;;;;;0.30;0.30;;;;;;;;;;5131412;27;20383;-79
2022/03/26 02:28:07;;;;;;;0.10;0.10;;;;;;;;;;5156397;27;20232;-78
2022/03/26 02:30:36;;;;;;;0.10;0.10;;;;;;;;;;5130275;27;20243;-79
2022/03/26 02:33:02;;;;;;;0.10;0.10;;;;;;;;;;5156756;27;20268;-79
2022/03/26 02:35:28;;;;;;;0.10;0.10;;;;;;;;;;5128709;27;20328;-79
2022/03/26 02:37:56;;;;;;;0.10;0.10;;;;;;;;;;5159550;27;20261;-79
2022/03/26 02:40:22;;;;;;;0.10;0.10;;;;;;;;;;5126230;27;20269;-79
2022/03/26 02:42:49;;;;;;;0.30;0.30;;;;;;;;;;5159667;27;20501;-78
2022/03/26 02:45:16;;;;;;;0.20;0.20;;;;;;;;;;5126440;27;20205;-79
2022/03/26 02:47:42;;;;;;;0.17;0.17;;;;;;;;;;5166798;27;20186;-78
2022/03/26 02:50:12;;;;;;;0.10;0.10;;;;;;;;;;5126367;27;20213;-79
2022/03/26 02:52:41;;;;;;;0.10;0.10;;;;;;;;;;5166376;27;20200;-79
2022/03/26 02:55:09;;;;;;;0.10;0.10;;;;;;;;;;5126366;27;20229;-78
2022/03/26 02:57:36;;;;;;;0.10;0.10;;;;;;;;;;5168343;27;20238;-80
2022/03/26 03:00:03;;;;;;;0.10;0.10;;;;;;;;;;5136169;28;20202;-80
2022/03/26 03:02:29;;;;;;;0.10;0.10;;;;;;;;;;5158775;27;20255;-79
2022/03/26 03:04:56;;;;;;;0.60;0.60;;;;;;;;;;5135873;28;20265;-79
2022/03/26 03:07:22;;;;;;;0.10;0.10;;;;;;;;;;5157906;27;20243;-79
2022/03/26 03:09:48;;;;;;;2.60;2.53;;;;;;;;;;5136154;28;20227;-78
2022/03/26 03:12:16;;;;;;;0.10;0.10;;;;;;;;;;5158367;27;20489;-79
2022/03/26 03:14:42;;;;;;;0.23;0.23;;;;;;;;;;5136050;28;20236;-79
2022/03/26 03:17:09;;;;;;;0.10;0.10;;;;;;;;;;5158601;27;20273;-79
2022/03/26 03:19:36;;;;;;;2.37;2.27;;;;;;;;;;5136406;28;20235;-80
2022/03/26 03:22:02;;;;;;;0.10;0.10;;;;;;;;;;5157989;27;20250;-80
2022/03/26 03:24:28;;;;;;;0.10;0.10;;;;;;;;;;5137642;27;20198;-80
2022/03/26 03:26:55;;;;;;;0.13;0.13;;;;;;;;;;5155553;27;20244;-79
2022/03/26 03:29:23;;;;;;;0.10;0.10;;;;;;;;;;5140449;27;20493;-80
2022/03/26 03:31:49;;;;;;;6.83;2.33;;;;;;;;;;5155139;27;20254;-79
2022/03/26 03:34:16;;;;;;;0.10;0.10;;;;;;;;;;5141259;27;20270;-80
2022/03/26 03:36:44;;;;;;;0.10;0.10;;;;;;;;;;5152446;27;20239;-79
2022/03/26 03:39:13;;;;;;;0.50;0.50;;;;;;;;;;5140952;27;20221;-79
2022/03/26 03:41:39;;;;;;;0.30;0.30;;;;;;;;;;5151312;27;20243;-79
2022/03/26 03:44:06;;;;;;;0.10;0.10;;;;;;;;;;5142572;27;20197;-78
2022/03/26 03:46:34;;;;;;;0.10;0.10;;;;;;;;;;5149381;27;20247;-79
2022/03/26 03:49:01;;;;;;;0.10;0.10;;;;;;;;;;5142979;27;20522;-82
2022/03/26 03:51:27;;;;;;;0.60;0.60;;;;;;;;;;5144586;27;20243;-79
2022/03/26 03:53:53;;;;;;;0.10;0.10;;;;;;;;;;5146962;27;20197;-80
2022/03/26 03:56:20;;;;;;;0.10;0.10;;;;;;;;;;5144792;27;20288;-79
2022/03/26 03:58:46;;;;;;;0.10;0.10;;;;;;;;;;5148081;27;20520;-79
2022/03/26 04:01:13;;;;;;;0.10;0.10;;;;;;;;;;5143669;27;20258;-80
2022/03/26 04:03:41;;;;;;;0.77;0.77;;;;;;;;;;5149284;27;20198;-79
2022/03/26 04:06:07;;;;;;;0.10;0.10;;;;;;;;;;5140478;27;20244;-79
2022/03/26 04:08:34;;;;;;;0.43;0.43;;;;;;;;;;5154000;27;20249;-80
2022/03/26 04:11:00;;;;;;;0.10;0.10;;;;;;;;;;5137449;27;20255;-79
2022/03/26 04:13:29;;;;;;;0.30;0.30;;;;;;;;;;5156074;27;20270;-79
2022/03/26 04:15:55;;;;;;;0.10;0.10;;;;;;;;;;5137176;27;20299;-79
2022/03/26 04:18:23;;;;;;;0.10;0.10;;;;;;;;;;5153227;27;20204;-79
2022/03/26 04:20:51;;;;;;;0.10;0.10;;;;;;;;;;5134022;27;20439;-80
2022/03/26 04:23:17;;;;;;;15.17;9.03;;;;;;;;;;5154600;27;20200;-81
2022/03/26 04:25:44;;;;;;;0.10;0.10;;;;;;;;;;5134794;27;20245;-80
2022/03/26 04:28:10;;;;;;;0.10;0.10;;;;;;;;;;5157054;27;20233;-80
2022/03/26 04:30:37;;;;;;;0.10;0.10;;;;;;;;;;5131990;27;20428;-80
2022/03/26 04:33:06;;;;;;;0.10;0.10;;;;;;;;;;5157933;27;20213;-80
2022/03/26 04:35:33;;;;;;;0.10;0.10;;;;;;;;;;5130957;27;20277;-81
2022/03/26 04:38:01;;;;;;;0.10;0.10;;;;;;;;;;5158913;27;20208;-80
2022/03/26 04:40:28;;;;;;;0.73;0.73;;;;;;;;;;5127205;27;20538;-80
2022/03/26 04:42:55;;;;;;;0.27;0.27;;;;;;;;;;5161369;27;20203;-81
2022/03/26 04:45:22;;;;;;;0.10;0.10;;;;;;;;;;5127574;27;20269;-79
2022/03/26 04:47:48;;;;;;;0.10;0.10;;;;;;;;;;5161640;27;20232;-80
2022/03/26 04:50:14;;;;;;;0.10;0.10;;;;;;;;;;5124321;27;20387;-80
2022/03/26 04:52:41;;;;;;;0.10;0.10;;;;;;;;;;5163231;27;20510;-81
2022/03/26 04:55:10;;;;;;;0.10;0.10;;;;;;;;;;5123800;27;20224;-79
2022/03/26 04:57:38;;;;;;;0.20;0.20;;;;;;;;;;5166926;27;20203;-81
2022/03/26 05:00:05;;;;;;;0.17;0.17;;;;;;;;;;5131427;27;20204;-77
2022/03/26 05:02:32;;;;;;;0.10;0.10;;;;;;;;;;5164579;27;20256;-81
2022/03/26 05:04:58;;;;;;;0.10;0.10;;;;;;;;;;5132710;28;20284;-80
2022/03/26 05:10:10;;;;;;;0.10;0.10;;;;;;;;;;5123430;27;20393;-78
2022/03/26 05:12:37;;;;;;;0.10;0.10;;;;;;;;;;5165862;27;20267;-81
2022/03/26 05:15:03;;;;;;;0.10;0.10;;;;;;;;;;5134113;28;20215;-81
2022/03/26 05:17:30;;;;;;;0.10;0.10;;;;;;;;;;5122614;28;20203;-79
2022/03/26 05:19:56;;;;;;;0.10;0.10;;;;;;;;;;5132313;28;20288;-80
2022/03/26 05:22:22;;;;;;;0.10;0.10;;;;;;;;;;5156172;27;20243;-80
2022/03/26 05:24:49;;;;;;;0.10;0.10;;;;;;;;;;5133002;28;20198;-80
2022/03/26 05:27:16;;;;;;;0.10;0.10;;;;;;;;;;5155793;27;20238;-80
2022/03/26 05:29:43;;;;;;;0.20;0.20;;;;;;;;;;5132825;28;20203;-80
2022/03/26 05:32:09;;;;;;;0.30;0.30;;;;;;;;;;5153079;27;20237;-81
2022/03/26 05:34:36;;;;;;;0.10;0.10;;;;;;;;;;5133244;27;20220;-79
2022/03/26 05:37:04;;;;;;;0.10;0.10;;;;;;;;;;5153341;27;20277;-80
2022/03/26 05:39:31;;;;;;;0.10;0.10;;;;;;;;;;5133454;27;20227;-81
2022/03/26 05:41:57;;;;;;;0.10;0.10;;;;;;;;;;5151754;27;20243;-79
2022/03/26 05:44:25;;;;;;;0.30;0.30;;;;;;;;;;5137804;27;20264;-80
2022/03/26 05:46:51;;;;;;;0.10;0.10;;;;;;;;;;5150010;27;20266;-79
2022/03/26 05:49:17;;;;;;;0.10;0.10;;;;;;;;;;5139828;27;20209;-79
2022/03/26 05:51:44;;;;;;;1.83;1.80;;;;;;;;;;5150151;27;20239;-79
2022/03/26 05:54:13;;;;;;;0.10;0.10;;;;;;;;;;5140157;27;20198;-81
2022/03/26 05:56:39;;;;;;;0.10;0.10;;;;;;;;;;5147327;27;20244;-79
2022/03/26 05:59:07;;;;;;;0.50;0.50;;;;;;;;;;5140660;27;20209;-82
2022/03/26 06:01:35;;;;;;;0.10;0.10;;;;;;;;;;5142913;27;20366;-80
2022/03/26 06:04:02;;;;;;;0.10;0.10;;;;;;;;;;5144085;27;20200;-80
2022/03/26 06:06:28;;;;;;;0.10;0.10;;;;;;;;;;5145180;27;20240;-80
2022/03/26 06:08:55;;;;;;;0.10;0.10;;;;;;;;;;5142607;27;20198;-79
2022/03/26 06:11:23;;;;;;;0.10;0.10;;;;;;;;;;5141715;27;20357;-79
2022/03/26 06:13:50;;;;;;;0.10;0.10;;;;;;;;;;5144672;27;20209;-80
2022/03/26 06:16:16;;;;;;;0.17;0.17;;;;;;;;;;5139747;27;20235;-79
2022/03/26 06:18:44;;;;;;;0.10;0.10;;;;;;;;;;5146878;27;20223;-80
2022/03/26 06:21:10;;;;;;;0.10;0.10;;;;;;;;;;5138163;27;20238;-80
2022/03/26 06:23:41;;;;;;;0.10;0.10;;;;;;;;;;5149064;27;20199;-82
2022/03/26 06:26:07;;;;;;;0.10;0.10;;;;;;;;;;5137799;27;20297;-80
2022/03/26 06:28:34;;;;;;;0.30;0.30;;;;;;;;;;5148393;27;20490;-78
2022/03/26 06:31:02;;;;;;;1.57;1.57;;;;;;;;;;5137158;27;20245;-80
2022/03/26 06:33:31;;;;;;;0.10;0.10;;;;;;;;;;5149330;27;20440;-80
2022/03/26 06:35:59;;;;;;;0.10;0.10;;;;;;;;;;5136160;27;20256;-80
2022/03/26 06:38:28;;;;;;;0.10;0.10;;;;;;;;;;5150380;27;20196;-80
2022/03/26 06:40:54;;;;;;;0.10;0.10;;;;;;;;;;5132668;27;20245;-80
2022/03/26 06:43:21;;;;;;;0.33;0.33;;;;;;;;;;5154587;27;20260;-80
2022/03/26 06:45:47;;;;;;;0.10;0.10;;;;;;;;;;5131936;27;20233;-80
2022/03/26 06:48:13;;;;;;;0.10;0.10;;;;;;;;;;5152918;27;20203;-80
2022/03/26 06:50:40;;;;;;;0.10;0.10;;;;;;;;;;5131354;27;20241;-79
2022/03/26 06:53:12;;;;;;;0.10;0.10;;;;;;;;;;5155641;27;20198;-80
2022/03/26 06:55:41;;;;;;;0.20;0.20;;;;;;;;;;5129256;27;20330;-81
2022/03/26 06:58:08;;;;;;;0.10;0.10;;;;;;;;;;5156810;27;20224;-81
2022/03/26 07:00:34;;;;;;;0.10;0.10;;;;;;;;;;5129411;27;20274;-82
2022/03/26 07:03:01;;;;;;;1.60;1.50;;;;;;;;;;5155880;27;20205;-80
2022/03/26 07:05:27;;;;;;;0.10;0.10;;;;;;;;;;5124133;27;20205;-80
2022/03/26 07:07:53;;;;;;;0.10;0.10;;;;;;;;;;5160848;27;20206;-80
2022/03/26 07:10:21;;;;;;;1.37;1.27;;;;;;;;;;5120511;27;20265;-80
2022/03/26 07:12:51;;;;;;;0.10;0.10;;;;;;;;;;5162250;27;20201;-80
2022/03/26 07:15:17;;;;;;;0.10;0.10;;;;;;;;;;5120530;27;20214;-79
2022/03/26 07:17:43;;;;;;;0.20;0.20;;;;;;;;;;5162795;27;20266;-82
2022/03/26 07:20:14;;;;;;;0.20;0.20;;;;;;;;;;5126014;28;20194;-81
2022/03/26 07:22:41;;;;;;;0.10;0.10;;;;;;;;;;5112907;28;20201;-81
2022/03/26 07:25:11;;;;;;;0.10;0.10;;;;;;;;;;5124695;27;20198;-80
2022/03/26 07:27:42;;;;;;;0.10;0.10;;;;;;;;;;5146485;27;20527;-81
2022/03/26 07:30:10;;;;;;;0.10;0.10;;;;;;;;;;5112918;27;20191;-82
2022/03/26 07:32:36;;;;;;;0.20;0.20;;;;;;;;;;5158429;27;20205;-82
2022/03/26 07:35:02;;;;;;;0.10;0.10;;;;;;;;;;5127852;27;20228;-82
2022/03/26 07:37:32;;;;;;;0.10;0.10;;;;;;;;;;5149759;27;20299;-81
2022/03/26 07:40:01;;;;;;;0.40;0.40;;;;;;;;;;5127185;27;20204;-81
2022/03/26 07:42:28;;;;;;;1.47;1.47;;;;;;;;;;5074698;28;20448;-81
2022/03/26 07:44:55;;;;;;;0.20;0.20;;;;;;;;;;5084661;28;20277;-80
2022/03/26 07:47:35;;;;;;;3.10;0.70;;;;;;;;;;5074017;28;20298;-81
2022/03/26 07:50:08;;;;;;;0.43;0.43;;;;;;;;;;5084955;28;20197;-81
2022/03/26 07:52:34;;;;;;;0.47;0.47;;;;;;;;;;5069015;28;20209;-81
2022/03/26 07:55:01;;;;;;;0.10;0.10;;;;;;;;;;5084443;28;20211;-80
2022/03/26 07:57:34;;;;;;;0.27;0.27;;;;;;;;;;5073379;28;20452;-80
2022/03/26 08:00:04;;;;;;;1.07;0.50;;;;;;;;;;5084600;28;20201;-83
2022/03/26 08:02:33;;;;;;;0.10;0.10;;;;;;;;;;5053895;28;20211;-81
2022/03/26 08:05:02;;;;;;;0.20;0.20;;;;;;;;;;5064323;28;20202;-81
2022/03/26 08:07:28;;;;;;;0.10;0.10;;;;;;;;;;5057220;28;20318;-82
2022/03/26 08:09:56;;;;;;;0.10;0.10;;;;;;;;;;5084187;28;20335;-81
2022/03/26 08:12:28;;;;;;;3.30;3.20;;;;;;;;;;5072602;28;20251;-81
2022/03/26 08:14:59;;;;;;;0.30;0.30;;;;;;;;;;5084088;28;20211;-81
2022/03/26 08:17:29;;;;;;;0.10;0.10;;;;;;;;;;5071622;28;20432;-79
2022/03/26 08:19:56;;;;;;;0.10;0.10;;;;;;;;;;5083917;28;20203;-81
2022/03/26 08:22:22;;;;;;;0.20;0.20;;;;;;;;;;5072892;28;20299;-82
2022/03/26 08:24:49;;;;;;;0.10;0.10;;;;;;;;;;5084245;28;20205;-82
2022/03/26 08:27:15;;;;;;;0.10;0.10;;;;;;;;;;5073488;28;20241;-81
2022/03/26 08:29:42;;;;;;;0.00;0.00;;;;;;;;;;5083686;28;20232;-81
2022/03/26 08:32:08;;;;;;;0.10;0.10;;;;;;;;;;5075763;28;20253;-81
2022/03/26 08:34:36;;;;;;;0.10;0.10;;;;;;;;;;5106454;28;20262;-81
2022/03/26 08:37:03;;;;;;;0.77;0.70;;;;;;;;;;5127985;27;20300;-82
2022/03/26 08:39:31;;;;;;;0.10;0.10;;;;;;;;;;5107309;27;20209;-81
2022/03/26 08:41:58;;;;;;;0.10;0.10;;;;;;;;;;5140322;27;20242;-82
2022/03/26 08:44:24;;;;;;;1.07;1.07;;;;;;;;;;5131239;27;20208;-82
2022/03/26 08:46:50;;;;;;;0.22;0.22;;;;;;;;;;5144716;27;20504;-81
2022/03/26 08:49:17;;;;;;;0.00;0.00;;;;;;;;;;5130746;27;20285;-81
2022/03/26 08:51:45;;;;;;;6.22;1.77;;;;;;;;;;5139998;27;20243;-81
2022/03/26 08:54:14;;;;;;;0.10;0.10;;;;;;;;;;5135166;27;20346;-81
2022/03/26 08:56:44;;;;;;;0.10;0.10;;;;;;;;;;5139095;27;20283;-80
2022/03/26 08:59:10;;;;;;;0.20;0.20;;;;;;;;;;5134084;27;20204;-79
2022/03/26 09:01:36;;;;;;;0.10;0.10;;;;;;;;;;5138273;27;20298;-80
2022/03/26 09:04:05;;;;;;;0.10;0.10;;;;;;;;;;5137428;27;20210;-84
2022/03/26 09:06:32;;;;;;;0.10;0.10;;;;;;;;;;5140689;27;20302;-83
2022/03/26 09:09:00;;;;;;;0.10;0.10;;;;;;;;;;5135289;27;20442;-68
2022/03/26 09:11:26;;;;;;;0.00;0.00;;;;;;;;;;5137048;27;20238;-69
2022/03/26 09:13:53;;;;;;;0.10;0.10;;;;;;;;;;5135618;27;20238;-68
2022/03/26 09:16:19;;;;;;;0.50;0.50;;;;;;;;;;5134609;27;20480;-68
2022/03/26 09:18:46;;;;;;;0.47;0.47;;;;;;;;;;5137668;27;20366;-68
2022/03/26 09:21:12;;;;;;;0.10;0.10;;;;;;;;;;5132928;27;20242;-68
2022/03/26 09:23:38;;;;;;;0.13;0.13;;;;;;;;;;5139156;27;20271;-69
2022/03/26 09:26:06;;;;;;;0.97;0.97;;;;;;;;;;5130147;27;20299;-67
2022/03/26 09:28:32;;;;;;;1.07;1.03;;;;;;;;;;5141515;27;20210;-69
2022/03/26 09:30:58;;;;;;;0.10;0.10;;;;;;;;;;5128708;27;20287;-69
2022/03/26 09:33:24;;;;;;;0.00;0.00;;;;;;;;;;5142874;27;20203;-67
2022/03/26 09:35:51;;;;;;;0.10;0.10;;;;;;;;;;5126535;27;20258;-71
2022/03/26 09:38:17;;;;;;;0.00;0.00;;;;;;;;;;5144942;27;20428;-66
2022/03/26 09:40:44;;;;;;;0.27;0.27;;;;;;;;;;5124496;27;20315;-68
2022/03/26 09:43:13;;;;;;;0.83;0.83;;;;;;;;;;5146918;27;20274;-68
2022/03/26 09:45:39;;;;;;;0.10;0.10;;;;;;;;;;5123297;27;20248;-72
2022/03/26 09:48:06;;;;;;;0.73;0.60;;;;;;;;;;5147805;27;20198;-73
2022/03/26 09:50:32;;;;;;;0.10;0.10;;;;;;;;;;5121236;27;20280;-70
2022/03/26 09:52:59;;;;;;;0.53;0.53;;;;;;;;;;5149703;27;20232;-75
2022/03/26 09:55:29;;;;;;;0.10;0.10;;;;;;;;;;5118707;27;20253;-83
2022/03/26 09:57:55;;;;;;;2.33;1.70;;;;;;;;;;5151190;27;20206;-79
2022/03/26 10:00:23;;;;;;;0.93;0.70;;;;;;;;;;5117724;27;20218;-77
2022/03/26 10:02:50;;;;;;;0.10;0.10;;;;;;;;;;5153104;27;20198;-75
2022/03/26 10:05:18;;;;;;;0.10;0.10;;;;;;;;;;5116721;27;20243;-75
2022/03/26 10:07:45;;;;;;;0.73;0.73;;;;;;;;;;5153521;27;20217;-75
2022/03/26 10:10:21;;;;;;;6.33;0.73;;;;;;;;;;5115110;27;20287;-75
2022/03/26 10:12:49;;;;;;;0.10;0.10;;;;;;;;;;5152916;27;20193;-79
2022/03/26 10:15:16;;;;;;;0.10;0.10;;;;;;;;;;5116165;27;20427;-77
2022/03/26 10:17:43;;;;;;;0.10;0.10;;;;;;;;;;5154093;27;20190;-74
2022/03/26 10:20:11;;;;;;;0.20;0.20;;;;;;;;;;5114305;27;20205;-75
2022/03/26 10:22:38;;;;;;;0.10;0.10;;;;;;;;;;5156067;27;20190;-79
2022/03/26 10:25:06;;;;;;;0.10;0.10;;;;;;;;;;5124078;28;20304;-78
2022/03/26 10:27:33;;;;;;;0.07;0.07;;;;;;;;;;5112674;28;20414;-77
2022/03/26 10:29:59;;;;;;;0.10;0.10;;;;;;;;;;5124192;27;20207;-77
2022/03/26 10:35:13;;;;;;;0.10;0.10;;;;;;;;;;5124018;28;20218;-76
2022/03/26 10:37:43;;;;;;;0.10;0.10;;;;;;;;;;5146265;27;20277;-77
2022/03/26 10:40:16;;;;;;;3.63;1.07;;;;;;;;;;5113440;27;20250;-75
2022/03/26 10:42:42;;;;;;;0.10;0.10;;;;;;;;;;5137305;28;20203;-72
2022/03/26 10:45:13;;;;;;;0.10;0.10;;;;;;;;;;5114124;27;20198;-72
2022/03/26 10:47:40;;;;;;;0.10;0.10;;;;;;;;;;5154062;27;20222;-71
2022/03/26 10:50:06;;;;;;;0.10;0.10;;;;;;;;;;5114928;27;20216;-73
2022/03/26 10:52:34;;;;;;;0.17;0.17;;;;;;;;;;5156170;27;20440;-73
2022/03/26 10:55:01;;;;;;;0.10;0.10;;;;;;;;;;5123744;28;20244;-72
2022/03/26 10:57:28;;;;;;;0.20;0.20;;;;;;;;;;5145993;27;20245;-72
2022/03/26 10:59:55;;;;;;;0.10;0.10;;;;;;;;;;5123476;28;20203;-74
2022/03/26 11:02:21;;;;;;;0.10;0.10;;;;;;;;;;5145864;27;20301;-74
2022/03/26 11:04:48;;;;;;;0.40;0.40;;;;;;;;;;5123639;28;20389;-72
2022/03/26 11:07:14;;;;;;;0.10;0.10;;;;;;;;;;5149248;27;20237;-64
2022/03/26 11:09:42;;;;;;;0.10;0.10;;;;;;;;;;5127260;28;20244;-66
2022/03/26 11:12:10;;;;;;;0.50;0.50;;;;;;;;;;5149740;27;20249;-67
2022/03/26 11:14:39;;;;;;;0.10;0.10;;;;;;;;;;5127153;28;20202;-63
2022/03/26 11:17:19;;;;;;;0.10;0.10;;;;;;;;;;5149556;27;20285;-69
2022/03/26 11:19:54;;;;;;;0.20;0.20;;;;;;;;;;5127335;28;20202;-68
2022/03/26 11:22:29;;;;;;;0.20;0.20;;;;;;;;;;5149754;27;20244;-67
2022/03/26 11:25:14;;;;;;;0.10;0.10;;;;;;;;;;5127570;28;20401;-65
2022/03/26 11:27:49;;;;;;;0.30;0.30;;;;;;;;;;5126802;28;20215;-65
2022/03/26 11:30:18;;;;;;;0.10;0.10;;;;;;;;;;5118547;27;20270;-66
2022/03/26 11:32:45;;;;;;;0.10;0.10;;;;;;;;;;5157000;27;20191;-65
2022/03/26 11:35:14;;;;;;;0.37;0.37;;;;;;;;;;5118002;27;20225;-67
2022/03/26 11:37:50;;;;;;;4.67;1.40;;;;;;;;;;5157511;27;20228;-65
2022/03/26 11:40:37;;;;;;;0.20;0.20;;;;;;;;;;5118951;27;20229;-68
2022/03/26 11:43:04;;;;;;;0.10;0.10;;;;;;;;;;5151679;27;20202;-71
2022/03/26 11:51:20;;;;;;;0.60;0.60;;;;;;;;;;5073728;28;20572;-70
2022/03/26 11:53:49;;;;;;;0.10;0.10;;;;;;;;;;5083704;28;20199;-70
2022/03/26 11:56:22;;;;;;;0.10;0.10;;;;;;;;;;5091832;28;20326;-70
2022/03/26 11:59:04;;;;;;;0.10;0.10;;;;;;;;;;5126182;28;20203;-68
2022/03/26 12:01:35;;;;;;;0.10;0.10;;;;;;;;;;5138833;27;20312;-69
2022/03/26 12:04:08;;;;;;;0.10;0.10;;;;;;;;;;5135912;27;20221;-70
2022/03/26 12:06:41;;;;;;;0.10;0.10;;;;;;;;;;5138709;27;20290;-70
2022/03/26 12:09:07;;;;;;;0.10;0.10;;;;;;;;;;5134746;27;20199;-69
2022/03/26 12:11:34;;;;;;;0.10;0.10;;;;;;;;;;5137143;27;20244;-70
2022/03/26 12:14:03;;;;;;;0.10;0.10;;;;;;;;;;5137707;27;20198;-70
2022/03/26 12:16:48;;;;;;;0.10;0.10;;;;;;;;;;5139121;27;20240;-68
2022/03/26 12:19:29;;;;;;;0.10;0.10;;;;;;;;;;5129676;27;20202;-69
2022/03/26 12:21:56;;;;;;;0.20;0.20;;;;;;;;;;5145485;27;20493;-70
2022/03/26 12:24:29;;;;;;;0.10;0.10;;;;;;;;;;5128146;27;20204;-72
2022/03/26 12:26:55;;;;;;;0.10;0.10;;;;;;;;;;5145397;27;20276;-71
2022/03/26 12:29:23;;;;;;;3.13;1.00;;;;;;;;;;5128349;27;20210;-72
2022/03/26 12:31:50;;;;;;;1.93;1.83;;;;;;;;;;5143988;27;20235;-70
2022/03/26 12:34:16;;;;;;;3.63;1.00;;;;;;;;;;5129238;27;20223;-71
2022/03/26 12:36:43;;;;;;;0.10;0.10;;;;;;;;;;5140120;27;20239;-72
2022/03/26 12:39:11;;;;;;;0.20;0.20;;;;;;;;;;5133025;27;20205;-69
2022/03/26 12:41:37;;;;;;;0.20;0.20;;;;;;;;;;5140379;27;20240;-69
2022/03/26 12:44:04;;;;;;;0.10;0.10;;;;;;;;;;5133233;27;20204;-71
2022/03/26 12:46:34;;;;;;;0.10;0.10;;;;;;;;;;5137648;27;20250;-72
2022/03/26 12:49:00;;;;;;;0.10;0.10;;;;;;;;;;5135508;27;20202;-74
2022/03/26 12:51:28;;;;;;;0.03;0.03;;;;;;;;;;5136730;27;20275;-76
2022/03/26 12:53:54;;;;;;;0.10;0.10;;;;;;;;;;5136251;27;20250;-75
2022/03/26 12:56:21;;;;;;;0.10;0.10;;;;;;;;;;5135622;27;20641;-76
2022/03/26 13:01:28;;;;;;;0.60;0.60;;;;;;;;;;5135570;27;20272;-75
2022/03/26 13:03:56;;;;;;;0.83;0.73;;;;;;;;;;5135658;27;20211;-76
2022/03/26 13:06:24;;;;;;;0.10;0.10;;;;;;;;;;5135968;27;20325;-74
2022/03/26 13:08:50;;;;;;;1.00;1.00;;;;;;;;;;5136473;27;20268;-72
2022/03/26 13:11:18;;;;;;;0.10;0.10;;;;;;;;;;5134431;27;20247;-70
2022/03/26 13:13:45;;;;;;;0.10;0.10;;;;;;;;;;5137902;27;20524;-68
2022/03/26 13:16:13;;;;;;;0.10;0.10;;;;;;;;;;5132778;27;20606;-70
2022/03/26 13:18:43;;;;;;;1.10;1.10;;;;;;;;;;5138974;27;20382;-71
2022/03/26 13:21:11;;;;;;;0.83;0.83;;;;;;;;;;5132049;27;20244;-70
2022/03/26 13:23:38;;;;;;;0.10;0.10;;;;;;;;;;5139298;27;20213;-69
2022/03/26 13:26:05;;;;;;;0.10;0.10;;;;;;;;;;5130304;27;20302;-70
2022/03/26 13:28:35;;;;;;;0.10;0.10;;;;;;;;;;5140812;27;20303;-70
2022/03/26 13:31:16;;;;;;;1.63;1.53;;;;;;;;;;5129026;27;20419;-70
2022/03/26 13:33:43;;;;;;;0.10;0.10;;;;;;;;;;5137978;27;20450;-71
2022/03/26 13:36:11;;;;;;;1.43;1.40;;;;;;;;;;5131584;27;20236;-70
2022/03/26 13:38:39;;;;;;;0.33;0.33;;;;;;;;;;5139093;27;20204;-71
2022/03/26 13:41:15;;;;;;;0.10;0.10;;;;;;;;;;5130688;27;20261;-69
2022/03/26 13:43:42;;;;;;;0.10;0.10;;;;;;;;;;5137868;27;20221;-70
2022/03/26 13:46:08;;;;;;;0.23;0.23;;;;;;;;;;5130893;27;20241;-69
2022/03/26 13:48:45;;;;;;;0.10;0.10;;;;;;;;;;5140341;27;20297;-70
2022/03/26 13:51:13;;;;;;;0.40;0.40;;;;;;;;;;5131979;27;20324;-78
2022/03/26 13:53:40;;;;;;;0.10;0.10;;;;;;;;;;5138914;27;20422;-78
2022/03/26 13:56:07;;;;;;;0.30;0.30;;;;;;;;;;5130717;27;20248;-79
2022/03/26 13:58:34;;;;;;;0.10;0.10;;;;;;;;;;5139885;27;20199;-77
2022/03/26 14:01:04;;;;;;;0.10;0.10;;;;;;;;;;5128563;27;20246;-70
2022/03/26 14:03:35;;;;;;;0.10;0.10;;;;;;;;;;5140505;27;20197;-71
2022/03/26 14:06:01;;;;;;;0.23;0.17;;;;;;;;;;5128908;27;20305;-71
2022/03/26 14:08:29;;;;;;;0.10;0.10;;;;;;;;;;5141179;27;20222;-69
2022/03/26 14:10:55;;;;;;;0.10;0.10;;;;;;;;;;5127101;27;20245;-69
2022/03/26 14:13:22;;;;;;;0.20;0.20;;;;;;;;;;5143197;27;20231;-70
2022/03/26 14:15:49;;;;;;;0.30;0.30;;;;;;;;;;5124678;27;20241;-69
2022/03/26 14:18:15;;;;;;;0.10;0.10;;;;;;;;;;5145313;27;20206;-70
2022/03/26 14:20:42;;;;;;;0.10;0.10;;;;;;;;;;5123178;27;20237;-68
2022/03/26 14:23:09;;;;;;;0.47;0.47;;;;;;;;;;5146472;27;20203;-70
2022/03/26 14:25:37;;;;;;;0.30;0.30;;;;;;;;;;5121330;27;20243;-70
2022/03/26 14:28:05;;;;;;;0.10;0.10;;;;;;;;;;5147958;27;20249;-70
2022/03/26 14:30:32;;;;;;;0.30;0.30;;;;;;;;;;5120207;27;20479;-69
2022/03/26 14:32:58;;;;;;;0.20;0.20;;;;;;;;;;5149184;27;20194;-75
2022/03/26 14:35:25;;;;;;;0.10;0.10;;;;;;;;;;5117902;27;20220;-77
2022/03/26 14:37:51;;;;;;;0.10;0.10;;;;;;;;;;5151128;27;20198;-78
2022/03/26 14:40:18;;;;;;;0.50;0.50;;;;;;;;;;5115946;27;20201;-76
2022/03/26 14:42:45;;;;;;;0.30;0.30;;;;;;;;;;5152809;27;20199;-75
2022/03/26 14:45:13;;;;;;;0.53;0.53;;;;;;;;;;5113424;27;20203;-75
2022/03/26 14:47:40;;;;;;;0.10;0.10;;;;;;;;;;5155263;27;20210;-74
2022/03/26 14:50:08;;;;;;;0.10;0.10;;;;;;;;;;5123445;28;20201;-74
2022/03/26 14:52:36;;;;;;;0.10;0.10;;;;;;;;;;5145816;27;20240;-76
2022/03/26 14:55:03;;;;;;;0.10;0.10;;;;;;;;;;5123324;28;20229;-76
2022/03/26 14:57:29;;;;;;;0.10;0.10;;;;;;;;;;5144996;27;20287;-77
2022/03/26 14:59:57;;;;;;;0.10;0.10;;;;;;;;;;5122808;28;20198;-75